createdAt,value
2022-11-25T00:01:15.798Z,4.30
2022-11-25T00:03:43.795Z,4.20
2022-11-25T00:06:16.343Z,4.20
2022-11-25T00:08:44.892Z,4.20
2022-11-25T00:11:12.737Z,4.20
2022-11-25T00:13:40.952Z,4.20
2022-11-25T00:16:11.035Z,4.20
2022-11-25T00:18:38.332Z,4.20
2022-11-25T00:21:10.580Z,4.20
2022-11-25T00:23:38.188Z,4.20
2022-11-25T00:26:15.844Z,4.20
2022-11-25T00:28:47.249Z,4.20
2022-11-25T00:31:22.557Z,4.10
2022-11-25T00:33:49.947Z,4.10
2022-11-25T00:36:17.044Z,4.10
2022-11-25T00:38:45.755Z,4.10
2022-11-25T00:41:31.420Z,4.00
2022-11-25T00:44:17.630Z,4.10
2022-11-25T00:46:44.497Z,4.00
2022-11-25T00:49:11.395Z,4.00
2022-11-25T00:51:38.304Z,4.00
2022-11-25T00:54:05.386Z,4.00
2022-11-25T00:56:32.714Z,4.00
2022-11-25T00:58:59.667Z,3.90
2022-11-25T01:01:27.036Z,4.00
2022-11-25T01:03:54.185Z,3.90
2022-11-25T01:06:22.170Z,3.90
2022-11-25T01:08:49.651Z,3.90
2022-11-25T01:11:19.875Z,3.90
2022-11-25T01:13:46.903Z,3.90
2022-11-25T01:16:19.302Z,3.90
2022-11-25T01:18:46.396Z,3.80
2022-11-25T01:21:14.713Z,3.80
2022-11-25T01:23:42.974Z,3.70
2022-11-25T01:26:21.832Z,3.70
2022-11-25T01:28:52.899Z,3.70
2022-11-25T01:31:21.838Z,3.70
2022-11-25T01:33:54.315Z,3.70
2022-11-25T01:36:21.217Z,3.70
2022-11-25T01:38:52.624Z,3.70
2022-11-25T01:41:20.218Z,3.70
2022-11-25T01:44:05.876Z,3.70
2022-11-25T01:46:55.050Z,3.70
2022-11-25T01:49:33.515Z,3.70
2022-11-25T01:52:06.894Z,3.70
2022-11-25T01:54:47.054Z,3.70
2022-11-25T01:57:26.434Z,3.70
2022-11-25T01:59:57.952Z,3.70
2022-11-25T02:02:25.029Z,3.60
2022-11-25T02:04:52.435Z,3.60
2022-11-25T02:07:28.656Z,3.60
2022-11-25T02:09:56.153Z,3.60
2022-11-25T02:12:24.607Z,3.60
2022-11-25T02:14:53.667Z,3.50
2022-11-25T02:17:20.718Z,3.50
2022-11-25T02:20:06.142Z,3.50
2022-11-25T02:22:54.859Z,3.50
2022-11-25T02:25:40.188Z,3.50
2022-11-25T02:28:14.479Z,3.40
2022-11-25T02:30:41.949Z,3.40
2022-11-25T02:33:09.181Z,3.40
2022-11-25T02:35:37.797Z,3.40
2022-11-25T02:38:32.398Z,3.40
2022-11-25T02:41:25.431Z,3.30
2022-11-25T02:43:52.308Z,3.20
2022-11-25T02:46:22.866Z,3.20
2022-11-25T02:49:08.459Z,3.10
2022-11-25T02:51:37.429Z,3.10
2022-11-25T02:54:04.967Z,3.10
2022-11-25T02:56:34.696Z,3.10
2022-11-25T02:59:02.684Z,3.10
2022-11-25T03:01:31.477Z,3.00
2022-11-25T03:03:58.882Z,3.00
2022-11-25T03:06:25.901Z,3.00
2022-11-25T03:08:52.726Z,3.00
2022-11-25T03:11:19.647Z,3.00
2022-11-25T03:13:46.506Z,3.10
2022-11-25T03:16:13.365Z,3.10
2022-11-25T03:18:40.369Z,3.10
2022-11-25T03:21:07.512Z,3.10
2022-11-25T03:23:34.402Z,3.10
2022-11-25T03:26:05.654Z,3.10
2022-11-25T03:28:32.587Z,3.10
2022-11-25T03:30:59.429Z,3.10
2022-11-25T03:33:26.353Z,3.10
2022-11-25T03:35:53.211Z,3.00
2022-11-25T03:38:20.042Z,3.00
2022-11-25T03:40:48.009Z,2.90
2022-11-25T03:43:14.864Z,2.90
2022-11-25T03:45:41.845Z,2.90
2022-11-25T03:48:09.019Z,2.90
2022-11-25T03:50:35.923Z,3.00
2022-11-25T03:53:02.763Z,3.00
2022-11-25T03:55:29.649Z,2.90
2022-11-25T03:57:56.511Z,3.00
2022-11-25T04:00:23.375Z,2.90
2022-11-25T04:02:50.336Z,2.90
2022-11-25T04:05:17.304Z,2.90
2022-11-25T04:07:44.237Z,2.90
2022-11-25T04:10:11.610Z,2.90
2022-11-25T04:12:47.772Z,2.90
2022-11-25T04:15:16.796Z,2.90
2022-11-25T04:17:43.827Z,2.90
2022-11-25T04:20:12.339Z,2.90
2022-11-25T04:22:39.269Z,2.90
2022-11-25T04:25:07.122Z,2.90
2022-11-25T04:27:34.442Z,2.90
2022-11-25T04:30:01.413Z,2.90
2022-11-25T04:32:28.533Z,2.80
2022-11-25T04:34:55.397Z,2.80
2022-11-25T04:37:22.327Z,2.80
2022-11-25T04:39:49.261Z,2.80
2022-11-25T04:42:34.878Z,2.80
2022-11-25T04:47:52.635Z,2.80
2022-11-25T04:50:21.817Z,2.80
2022-11-25T04:52:48.836Z,2.70
2022-11-25T04:55:15.741Z,2.70
2022-11-25T04:57:42.568Z,2.70
2022-11-25T05:00:11.162Z,2.70
2022-11-25T05:02:38.157Z,2.70
2022-11-25T05:05:06.236Z,2.70
2022-11-25T05:07:33.391Z,2.70
2022-11-25T05:10:00.287Z,2.70
2022-11-25T05:12:29.096Z,2.70
2022-11-25T05:14:56.631Z,2.70
2022-11-25T05:17:25.905Z,2.70
2022-11-25T05:19:53.226Z,2.70
2022-11-25T05:22:23.319Z,2.70
2022-11-25T05:24:50.258Z,2.60
2022-11-25T05:27:18.163Z,2.50
2022-11-25T05:29:45.262Z,2.40
2022-11-25T05:32:12.664Z,2.40
2022-11-25T05:34:40.098Z,2.40
2022-11-25T05:37:07.734Z,2.40
2022-11-25T05:39:34.832Z,2.50
2022-11-25T05:42:01.830Z,2.50
2022-11-25T05:44:28.670Z,2.60
2022-11-25T05:46:55.577Z,2.60
2022-11-25T05:49:22.542Z,2.60
2022-11-25T05:51:49.497Z,2.60
2022-11-25T05:54:16.416Z,2.70
2022-11-25T05:56:43.353Z,2.70
2022-11-25T05:59:10.203Z,2.70
2022-11-25T06:01:37.020Z,2.70
2022-11-25T06:04:05.249Z,2.60
2022-11-25T06:06:32.767Z,2.50
2022-11-25T06:09:00.429Z,2.60
2022-11-25T06:11:27.538Z,2.50
2022-11-25T06:13:59.290Z,2.50
2022-11-25T06:16:26.457Z,2.60
2022-11-25T06:18:53.361Z,2.60
2022-11-25T06:21:20.426Z,2.60
2022-11-25T06:23:47.560Z,2.60
2022-11-25T06:26:15.996Z,2.60
2022-11-25T06:28:43.574Z,2.60
2022-11-25T06:31:15.638Z,2.60
2022-11-25T06:33:45.893Z,2.60
2022-11-25T06:36:21.728Z,2.60
2022-11-25T06:38:51.763Z,2.60
2022-11-25T06:41:19.139Z,2.60
2022-11-25T06:43:46.162Z,2.50
2022-11-25T06:46:24.446Z,2.50
2022-11-25T06:48:52.008Z,2.50
2022-11-25T06:51:19.233Z,2.40
2022-11-25T06:53:46.192Z,2.40
2022-11-25T06:56:19.623Z,2.40
2022-11-25T06:58:47.853Z,2.40
2022-11-25T07:01:17.471Z,2.40
2022-11-25T07:03:46.154Z,2.50
2022-11-25T07:06:14.484Z,2.40
2022-11-25T07:08:41.913Z,2.50
2022-11-25T07:11:20.662Z,2.50
2022-11-25T07:13:48.776Z,2.40
2022-11-25T07:16:16.143Z,2.40
2022-11-25T07:18:43.179Z,2.50
2022-11-25T07:21:15.491Z,2.40
2022-11-25T07:23:43.862Z,2.50
2022-11-25T07:26:16.734Z,2.50
2022-11-25T07:28:44.662Z,2.50
2022-11-25T07:31:27.653Z,2.50
2022-11-25T07:34:01.968Z,2.60
2022-11-25T07:36:30.251Z,2.70
2022-11-25T07:39:03.596Z,2.70
2022-11-25T07:41:30.612Z,2.70
2022-11-25T07:44:04.840Z,2.70
2022-11-25T07:46:34.160Z,2.70
2022-11-25T07:49:04.549Z,2.80
2022-11-25T07:51:39.902Z,2.70
2022-11-25T07:54:08.889Z,2.70
2022-11-25T07:56:37.366Z,2.70
2022-11-25T07:59:05.209Z,2.80
2022-11-25T08:01:32.280Z,2.80
2022-11-25T08:03:59.572Z,2.80
2022-11-25T08:06:28.314Z,2.90
2022-11-25T08:08:57.286Z,2.90
2022-11-25T08:11:27.755Z,3.00
2022-11-25T08:13:55.740Z,3.10
2022-11-25T08:16:31.326Z,3.20
2022-11-25T08:19:00.275Z,3.20
2022-11-25T08:21:28.048Z,3.30
2022-11-25T08:23:55.438Z,3.40
2022-11-25T08:26:30.185Z,3.50
2022-11-25T08:28:58.398Z,3.70
2022-11-25T08:31:30.493Z,3.90
2022-11-25T08:33:57.912Z,3.90
2022-11-25T08:36:26.274Z,4.00
2022-11-25T08:38:55.507Z,4.00
2022-11-25T08:41:32.051Z,3.90
2022-11-25T08:44:00.913Z,4.00
2022-11-25T08:46:33.773Z,4.10
2022-11-25T08:49:01.754Z,4.10
2022-11-25T08:51:31.583Z,4.20
2022-11-25T08:53:59.638Z,4.20
2022-11-25T08:56:26.714Z,4.20
2022-11-25T08:58:55.106Z,4.20
2022-11-25T09:01:23.403Z,4.20
2022-11-25T09:03:53.014Z,4.30
2022-11-25T09:06:20.472Z,4.40
2022-11-25T09:08:47.906Z,4.50
2022-11-25T09:11:15.435Z,4.60
2022-11-25T09:13:42.361Z,4.70
2022-11-25T09:16:09.737Z,4.90
2022-11-25T09:18:37.426Z,5.10
2022-11-25T09:21:13.138Z,5.40
2022-11-25T09:23:40.558Z,5.50
2022-11-25T09:26:08.254Z,5.60
2022-11-25T09:28:36.668Z,5.70
2022-11-25T09:31:08.544Z,5.70
2022-11-25T09:33:36.224Z,6.50
2022-11-25T09:36:03.914Z,6.80
2022-11-25T09:38:31.060Z,6.70
2022-11-25T09:41:49.374Z,6.70
2022-11-25T09:44:59.851Z,6.60
2022-11-25T09:47:58.202Z,6.60
2022-11-25T09:50:48.710Z,6.50
2022-11-25T09:53:24.677Z,6.40
2022-11-25T09:56:00.048Z,6.20
2022-11-25T09:58:39.044Z,6.10
2022-11-25T10:01:12.680Z,6.00
2022-11-25T10:03:46.456Z,5.90
2022-11-25T10:06:24.108Z,5.90
2022-11-25T10:09:02.440Z,5.80
2022-11-25T10:11:55.030Z,5.80
2022-11-25T10:14:34.107Z,5.70
2022-11-25T10:17:14.773Z,5.70
2022-11-25T10:19:47.819Z,5.70
2022-11-25T10:22:31.452Z,5.70
2022-11-25T10:25:06.538Z,5.70
2022-11-25T10:27:51.132Z,5.70
2022-11-25T10:30:22.068Z,5.60
2022-11-25T10:33:02.492Z,5.60
2022-11-25T10:35:38.628Z,5.50
2022-11-25T10:38:18.562Z,5.50
2022-11-25T10:40:49.831Z,5.40
2022-11-25T10:43:16.635Z,5.50
2022-11-25T10:45:57.631Z,5.50
2022-11-25T10:48:50.611Z,5.60
2022-11-25T10:51:37.592Z,5.60
2022-11-25T10:54:27.237Z,5.60
2022-11-25T10:57:19.025Z,5.50
2022-11-25T10:59:58.859Z,5.50
2022-11-25T11:02:38.522Z,5.50
2022-11-25T11:05:22.406Z,5.50
2022-11-25T11:08:16.630Z,5.50
2022-11-25T11:10:44.322Z,5.60
2022-11-25T11:13:33.197Z,5.60
2022-11-25T11:16:00.531Z,5.60
2022-11-25T11:18:40.871Z,5.70
2022-11-25T11:21:21.815Z,5.70
2022-11-25T11:23:52.219Z,5.70
2022-11-25T11:26:28.210Z,5.80
2022-11-25T11:29:16.003Z,5.80
2022-11-25T11:31:49.351Z,5.90
2022-11-25T11:34:35.481Z,5.90
2022-11-25T11:37:36.294Z,6.00
2022-11-25T11:40:28.753Z,6.00
2022-11-25T11:43:04.347Z,6.10
2022-11-25T11:45:31.203Z,6.10
2022-11-25T11:48:21.444Z,6.20
2022-11-25T11:50:58.081Z,6.20
2022-11-25T11:53:43.557Z,6.20
2022-11-25T11:56:39.054Z,6.20
2022-11-25T11:59:23.668Z,6.20
2022-11-25T12:02:18.256Z,6.20
2022-11-25T12:04:55.570Z,6.30
2022-11-25T12:07:41.152Z,6.30
2022-11-25T12:10:26.799Z,6.30
2022-11-25T12:13:06.195Z,6.30
2022-11-25T12:15:48.302Z,6.20
2022-11-25T12:18:20.927Z,6.30
2022-11-25T12:21:12.860Z,6.40
2022-11-25T12:24:05.077Z,6.40
2022-11-25T12:26:55.893Z,6.40
2022-11-25T12:29:34.846Z,6.30
2022-11-25T12:32:39.151Z,6.40
2022-11-25T12:35:12.063Z,6.40
2022-11-25T12:37:46.887Z,6.40
2022-11-25T12:40:20.402Z,6.40
2022-11-25T12:42:49.197Z,6.50
2022-11-25T12:45:24.620Z,6.50
2022-11-25T12:47:53.154Z,6.50
2022-11-25T12:51:09.206Z,6.60
2022-11-25T12:54:01.593Z,6.70
2022-11-25T12:56:43.213Z,6.80
2022-11-25T12:59:44.195Z,6.80
2022-11-25T13:02:38.296Z,6.80
2022-11-25T13:05:40.089Z,6.80
2022-11-25T13:08:39.668Z,6.90
2022-11-25T13:11:21.705Z,6.90
2022-11-25T13:13:58.440Z,6.80
2022-11-25T13:16:27.797Z,6.90
2022-11-25T13:18:55.882Z,6.80
2022-11-25T13:21:27.559Z,6.80
2022-11-25T13:23:58.906Z,6.70
2022-11-25T13:26:37.068Z,6.80
2022-11-25T13:29:26.784Z,6.70
2022-11-25T13:32:05.190Z,6.70
2022-11-25T13:34:34.643Z,6.70
2022-11-25T13:37:23.146Z,6.70
2022-11-25T13:39:49.950Z,6.80
2022-11-25T13:42:19.799Z,6.80
2022-11-25T13:44:58.067Z,6.80
2022-11-25T13:47:41.315Z,6.80
2022-11-25T13:50:23.274Z,6.80
2022-11-25T13:53:04.935Z,6.80
2022-11-25T13:55:38.618Z,6.80
2022-11-25T13:58:17.385Z,6.80
2022-11-25T14:00:44.324Z,6.80
2022-11-25T14:03:31.403Z,6.80
2022-11-25T14:06:43.121Z,6.80
2022-11-25T14:09:24.519Z,6.80
2022-11-25T14:12:16.398Z,6.90
2022-11-25T14:14:52.219Z,6.90
2022-11-25T14:17:33.842Z,7.00
2022-11-25T14:20:13.613Z,7.00
2022-11-25T14:22:43.370Z,7.00
2022-11-25T14:25:34.062Z,7.00
2022-11-25T14:28:18.838Z,7.00
2022-11-25T14:30:53.702Z,7.00
2022-11-25T14:33:48.723Z,6.90
2022-11-25T14:36:21.170Z,6.90
2022-11-25T14:38:54.393Z,6.90
2022-11-25T14:41:38.404Z,6.90
2022-11-25T14:44:11.700Z,6.90
2022-11-25T14:46:55.625Z,6.90
2022-11-25T14:49:46.674Z,6.90
2022-11-25T14:52:11.181Z,6.90
2022-11-25T14:54:43.394Z,7.00
2022-11-25T14:57:11.028Z,7.00
2022-11-25T14:59:43.582Z,7.00
2022-11-25T15:02:26.058Z,7.10
2022-11-25T15:04:53.264Z,7.00
2022-11-25T15:07:27.850Z,7.00
2022-11-25T15:09:57.748Z,7.10
2022-11-25T15:12:31.000Z,7.00
2022-11-25T15:14:58.542Z,7.00
2022-11-25T15:17:33.240Z,7.00
2022-11-25T15:20:04.368Z,7.00
2022-11-25T15:22:31.285Z,7.00
2022-11-25T15:25:09.844Z,6.90
2022-11-25T15:27:51.484Z,6.90
2022-11-25T15:30:26.323Z,6.90
2022-11-25T15:32:55.296Z,6.90
2022-11-25T15:35:27.473Z,6.90
2022-11-25T15:37:54.461Z,6.90
2022-11-25T15:40:36.962Z,6.90
2022-11-25T15:43:07.834Z,6.90
2022-11-25T15:45:45.975Z,6.90
2022-11-25T15:48:40.178Z,6.90
2022-11-25T15:51:18.985Z,6.80
2022-11-25T15:53:47.023Z,6.80
2022-11-25T15:56:21.631Z,6.80
2022-11-25T15:58:48.437Z,6.80
2022-11-25T16:01:18.240Z,6.80
2022-11-25T16:03:46.617Z,6.80
2022-11-25T16:06:22.002Z,6.80
2022-11-25T16:09:02.976Z,6.80
2022-11-25T16:11:33.635Z,6.70
2022-11-25T16:14:25.952Z,6.70
2022-11-25T16:17:00.940Z,6.70
2022-11-25T16:19:37.965Z,6.70
2022-11-25T16:22:05.897Z,6.70
2022-11-25T16:24:35.297Z,6.70
2022-11-25T16:27:21.099Z,6.70
2022-11-25T16:29:51.491Z,6.70
2022-11-25T16:32:24.596Z,6.70
2022-11-25T16:34:51.902Z,6.70
2022-11-25T16:37:18.789Z,6.70
2022-11-25T16:39:45.596Z,6.70
2022-11-25T16:42:21.465Z,6.70
2022-11-25T16:44:50.918Z,6.70
2022-11-25T16:47:19.471Z,6.70
2022-11-25T16:49:46.726Z,6.70
2022-11-25T16:52:14.631Z,6.70
2022-11-25T16:54:41.931Z,6.70
2022-11-25T16:57:16.857Z,6.70
2022-11-25T16:59:45.585Z,6.70
2022-11-25T17:02:20.824Z,6.70
2022-11-25T17:04:48.585Z,6.60
2022-11-25T17:07:32.231Z,6.60
2022-11-25T17:09:59.923Z,6.60
2022-11-25T17:12:31.447Z,6.60
2022-11-25T17:15:00.201Z,6.60
2022-11-25T17:17:27.788Z,6.60
2022-11-25T17:19:54.698Z,6.50
2022-11-25T17:22:24.203Z,6.50
2022-11-25T17:24:51.366Z,6.40
2022-11-25T17:27:25.373Z,6.40
2022-11-25T17:29:53.455Z,6.40
2022-11-25T17:32:21.052Z,6.40
2022-11-25T17:34:48.079Z,6.40
2022-11-25T17:37:17.429Z,6.40
2022-11-25T17:39:44.430Z,6.30
2022-11-25T17:42:19.283Z,6.30
2022-11-25T17:44:51.293Z,6.30
2022-11-25T17:47:20.413Z,6.30
2022-11-25T17:49:48.289Z,6.30
2022-11-25T17:52:15.523Z,6.30
2022-11-25T17:54:42.383Z,6.30
2022-11-25T17:57:15.873Z,6.30
2022-11-25T17:59:42.855Z,6.30
2022-11-25T18:02:20.901Z,6.30
2022-11-25T18:04:48.646Z,6.30
2022-11-25T18:07:15.582Z,6.30
2022-11-25T18:09:42.492Z,6.40
2022-11-25T18:12:30.872Z,6.40
2022-11-25T18:14:57.938Z,6.30
2022-11-25T18:17:25.055Z,6.30
2022-11-25T18:19:55.236Z,6.40
2022-11-25T18:22:24.164Z,6.30
2022-11-25T18:24:52.386Z,6.30
2022-11-25T18:27:27.077Z,6.30
2022-11-25T18:29:55.828Z,6.30
2022-11-25T18:32:23.822Z,6.30
2022-11-25T18:34:51.571Z,6.20
2022-11-25T18:37:18.504Z,6.30
2022-11-25T18:39:45.355Z,6.20
2022-11-25T18:42:25.566Z,6.20
2022-11-25T18:44:54.316Z,6.20
2022-11-25T18:47:21.630Z,6.20
2022-11-25T18:49:53.828Z,6.20
2022-11-25T18:52:22.171Z,6.20
2022-11-25T18:54:49.515Z,6.20
2022-11-25T18:57:16.478Z,6.20
2022-11-25T18:59:44.441Z,6.20
2022-11-25T19:02:17.739Z,6.20
2022-11-25T19:04:44.959Z,6.20
2022-11-25T19:07:11.934Z,6.20
2022-11-25T19:09:38.878Z,6.20
2022-11-25T19:12:06.509Z,6.20
2022-11-25T19:14:37.588Z,6.30
2022-11-25T19:17:09.369Z,6.30
2022-11-25T19:19:37.950Z,6.30
2022-11-25T19:22:11.860Z,6.30
2022-11-25T19:24:38.884Z,6.30
2022-11-25T19:27:05.948Z,6.30
2022-11-25T19:29:41.747Z,6.30
2022-11-25T19:32:28.109Z,6.30
2022-11-25T19:35:02.924Z,6.30
2022-11-25T19:37:32.496Z,6.40
2022-11-25T19:39:59.434Z,6.30
2022-11-25T19:42:28.410Z,6.30
2022-11-25T19:44:55.283Z,6.30
2022-11-25T19:47:24.520Z,6.40
2022-11-25T19:49:54.677Z,6.30
2022-11-25T19:52:33.189Z,6.30
2022-11-25T19:55:00.055Z,6.30
2022-11-25T19:57:27.618Z,6.30
2022-11-25T19:59:54.537Z,6.30
2022-11-25T20:02:24.387Z,6.30
2022-11-25T20:04:54.514Z,6.30
2022-11-25T20:07:22.123Z,6.30
2022-11-25T20:09:51.192Z,6.30
2022-11-25T20:12:22.814Z,6.20
2022-11-25T20:14:51.735Z,6.20
2022-11-25T20:17:47.973Z,6.20
2022-11-25T20:20:28.453Z,6.10
2022-11-25T20:23:08.642Z,6.10
2022-11-25T20:25:41.599Z,6.10
2022-11-25T20:28:20.042Z,6.00
2022-11-25T20:30:48.093Z,5.90
2022-11-25T20:33:19.819Z,5.80
2022-11-25T20:35:51.442Z,5.80
2022-11-25T20:38:22.139Z,5.80
2022-11-25T20:40:51.931Z,5.70
2022-11-25T20:43:27.211Z,5.70
2022-11-25T20:45:54.420Z,5.70
2022-11-25T20:48:21.487Z,5.70
2022-11-25T20:50:48.935Z,5.80
2022-11-25T20:53:18.395Z,5.80
2022-11-25T20:55:46.222Z,5.80
2022-11-25T20:58:30.525Z,5.90
2022-11-25T21:00:58.671Z,5.90
2022-11-25T21:03:26.107Z,6.00
2022-11-25T21:05:54.934Z,5.90
2022-11-25T21:08:24.122Z,6.00
2022-11-25T21:10:53.286Z,6.00
2022-11-25T21:13:29.471Z,6.00
2022-11-25T21:15:57.600Z,6.10
2022-11-25T21:18:24.805Z,6.10
2022-11-25T21:20:55.618Z,6.10
2022-11-25T21:23:28.622Z,6.10
2022-11-25T21:26:02.621Z,6.10
2022-11-25T21:28:29.468Z,6.10
2022-11-25T21:30:56.319Z,6.10
2022-11-25T21:33:23.185Z,6.10
2022-11-25T21:35:53.041Z,6.10
2022-11-25T21:38:26.192Z,6.20
2022-11-25T21:40:58.103Z,6.10
2022-11-25T21:43:31.935Z,6.10
2022-11-25T21:46:02.437Z,6.20
2022-11-25T21:48:29.943Z,6.20
2022-11-25T21:50:57.172Z,6.20
2022-11-25T21:53:24.341Z,6.20
2022-11-25T21:55:51.746Z,6.10
2022-11-25T21:58:21.469Z,6.10
2022-11-25T22:00:56.657Z,6.10
2022-11-25T22:03:24.944Z,6.10
2022-11-25T22:05:51.873Z,6.10
2022-11-25T22:08:18.696Z,6.00
2022-11-25T22:10:49.178Z,6.10
2022-11-25T22:13:19.524Z,6.10
2022-11-25T22:15:47.016Z,6.10
2022-11-25T22:18:31.294Z,6.10
2022-11-25T22:20:58.359Z,6.10
2022-11-25T22:23:25.562Z,6.10
2022-11-25T22:25:52.773Z,6.20
2022-11-25T22:28:28.720Z,6.20
2022-11-25T22:31:00.735Z,6.10
2022-11-25T22:33:33.100Z,6.10
2022-11-25T22:36:00.443Z,6.10
2022-11-25T22:38:28.484Z,6.10
2022-11-25T22:41:01.606Z,6.10
2022-11-25T22:43:43.414Z,6.10
2022-11-25T22:46:10.993Z,6.10
2022-11-25T22:48:38.902Z,6.10
2022-11-25T22:51:06.332Z,6.00
2022-11-25T22:53:33.236Z,6.00
2022-11-25T22:56:00.180Z,6.00
2022-11-25T22:58:28.262Z,6.00
2022-11-25T23:00:56.593Z,6.00
2022-11-25T23:03:33.551Z,6.00
2022-11-25T23:06:02.102Z,6.00
2022-11-25T23:08:31.777Z,6.00
2022-11-25T23:10:59.056Z,6.00
2022-11-25T23:13:26.207Z,6.10
2022-11-25T23:15:55.550Z,6.10
2022-11-25T23:18:40.727Z,6.00
2022-11-25T23:21:25.266Z,6.00
2022-11-25T23:23:52.583Z,6.00
2022-11-25T23:26:19.690Z,6.00
2022-11-25T23:28:46.553Z,6.00
2022-11-25T23:31:15.336Z,6.00
2022-11-25T23:33:46.075Z,6.00
2022-11-25T23:36:18.736Z,5.90
2022-11-25T23:38:51.275Z,5.90
2022-11-25T23:41:25.158Z,5.90
2022-11-25T23:43:52.960Z,5.80
2022-11-25T23:46:23.754Z,5.80
2022-11-25T23:48:57.406Z,5.80
2022-11-25T23:51:26.442Z,5.80
2022-11-25T23:53:54.503Z,5.70
2022-11-25T23:56:21.841Z,5.70
2022-11-25T23:58:50.030Z,5.70
